Time;durP1;ratioP1;P1;durP2;ratioP2;P2;SDS_P1;SDS_P2;PMS_P1;PMS_P2;Temp;Humidity;BMP_temperature;BMP_pressure;BME280_temperature;BME280_humidity;BME280_pressure;Samples;Min_cycle;Max_cycle;Signal;HPM_P1;HPM_P2
2020/12/20 00:01:14;;;;;;;;;;;;;;;;;;5078737;28;19908;-69
2020/12/20 00:03:40;;;;;;;;;;;;;;;;;;5087637;28;19909;-69
2020/12/20 00:06:06;;;;;;;;;;;;;;;;;;5084071;28;19981;-70
2020/12/20 00:08:31;;;;;;;;;;;;;;;;;;5060512;28;20027;-68
2020/12/20 00:10:57;;;;;;;;;;;;;;;;;;5067730;28;19999;-68
2020/12/20 00:13:23;;;;;;;;;;;;;;;;;;5072559;28;19965;-68
2020/12/20 00:15:49;;;;;;;;;;;;;;;;;;5072409;28;20520;-68
2020/12/20 00:18:15;;;;;;;;;;;;;;;;;;5070705;28;20458;-69
2020/12/20 00:20:41;;;;;;;;;;;;;;;;;;5072011;28;19966;-69
2020/12/20 00:23:07;;;;;;;;;;;;;;;;;;5072022;28;20196;-68
2020/12/20 00:25:33;;;;;;;;;;;;;;;;;;5070724;28;19909;-68
2020/12/20 00:27:59;;;;;;;;;;;;;;;;;;5070533;28;20002;-68
2020/12/20 00:30:25;;;;;;;;;;;;;;;;;;5072084;28;19961;-69
2020/12/20 00:32:51;;;;;;;;;;;;;;;;;;5070635;28;20325;-69
2020/12/20 00:35:17;;;;;;;;;;;;;;;;;;5070370;28;20005;-70
2020/12/20 00:37:43;;;;;;;;;;;;;;;;;;5064067;28;19983;-69
2020/12/20 00:40:09;;;;;;;;;;;;;;;;;;5063636;28;20029;-69
2020/12/20 00:42:35;;;;;;;;;;;;;;;;;;5072010;28;19999;-68
2020/12/20 00:45:01;;;;;;;;;;;;;;;;;;5070584;28;20524;-69
2020/12/20 00:47:27;;;;;;;;;;;;;;;;;;5071712;28;19924;-68
2020/12/20 00:49:53;;;;;;;;;;;;;;;;;;5071854;28;19909;-69
2020/12/20 00:52:19;;;;;;;;;;;;;;;;;;5070457;28;19908;-69
2020/12/20 00:54:44;;;;;;;;;;;;;;;;;;5070500;28;19912;-68
2020/12/20 00:57:10;;;;;;;;;;;;;;;;;;5071569;28;19908;-69
2020/12/20 00:59:36;;;;;;;;;;;;;;;;;;5070012;28;19912;-69
2020/12/20 01:02:02;;;;;;;;;;;;;;;;;;5070212;28;20320;-69
2020/12/20 01:04:28;;;;;;;;;;;;;;;;;;5070228;28;20003;-69
2020/12/20 01:06:54;;;;;;;;;;;;;;;;;;5064361;28;20046;-69
2020/12/20 01:09:20;;;;;;;;;;;;;;;;;;5062330;28;19909;-68
2020/12/20 01:11:46;;;;;;;;;;;;;;;;;;5070152;28;19970;-68
2020/12/20 01:14:12;;;;;;;;;;;;;;;;;;5071370;28;19908;-69
2020/12/20 01:16:38;;;;;;;;;;;;;;;;;;5070306;28;19913;-69
2020/12/20 01:19:04;;;;;;;;;;;;;;;;;;5069866;28;19909;-67
2020/12/20 01:21:29;;;;;;;;;;;;;;;;;;5071433;28;19959;-68
2020/12/20 01:23:55;;;;;;;;;;;;;;;;;;5069837;28;19940;-69
2020/12/20 01:26:21;;;;;;;;;;;;;;;;;;5071573;28;19995;-69
2020/12/20 01:28:47;;;;;;;;;;;;;;;;;;5071113;28;19969;-69
2020/12/20 01:31:14;;;;;;;;;;;;;;;;;;5069837;28;20388;-69
2020/12/20 01:33:40;;;;;;;;;;;;;;;;;;5070944;28;20003;-69
2020/12/20 01:36:06;;;;;;;;;;;;;;;;;;5069544;28;20554;-69
2020/12/20 01:38:32;;;;;;;;;;;;;;;;;;5062237;28;19908;-69
2020/12/20 01:40:58;;;;;;;;;;;;;;;;;;5070946;28;19970;-69
2020/12/20 01:43:24;;;;;;;;;;;;;;;;;;5063297;28;19908;-69
2020/12/20 01:45:50;;;;;;;;;;;;;;;;;;5066226;28;20245;-68
2020/12/20 01:48:16;;;;;;;;;;;;;;;;;;5070719;28;19927;-69
2020/12/20 01:50:42;;;;;;;;;;;;;;;;;;5069757;28;20322;-69
2020/12/20 01:53:07;;;;;;;;;;;;;;;;;;5069504;28;19915;-70
2020/12/20 01:55:33;;;;;;;;;;;;;;;;;;5069704;28;20280;-69
2020/12/20 01:57:59;;;;;;;;;;;;;;;;;;5070906;28;19915;-69
2020/12/20 02:00:25;;;;;;;;;;;;;;;;;;5070912;28;19915;-69
2020/12/20 02:02:51;;;;;;;;;;;;;;;;;;5069877;28;20357;-69
2020/12/20 02:05:17;;;;;;;;;;;;;;;;;;5070103;28;19909;-69
2020/12/20 02:07:43;;;;;;;;;;;;;;;;;;5064090;28;19971;-70
2020/12/20 02:10:09;;;;;;;;;;;;;;;;;;5066755;28;20003;-69
2020/12/20 02:12:35;;;;;;;;;;;;;;;;;;5075316;28;19951;-69
2020/12/20 02:15:01;;;;;;;;;;;;;;;;;;5074543;28;20015;-69
2020/12/20 02:17:26;;;;;;;;;;;;;;;;;;5074189;28;19951;-68
2020/12/20 02:19:52;;;;;;;;;;;;;;;;;;5073164;28;20007;-69
2020/12/20 02:22:18;;;;;;;;;;;;;;;;;;5074245;28;20003;-69
2020/12/20 02:24:44;;;;;;;;;;;;;;;;;;5074306;28;20291;-69
2020/12/20 02:27:10;;;;;;;;;;;;;;;;;;5074253;28;19954;-69
2020/12/20 02:29:36;;;;;;;;;;;;;;;;;;5074039;28;19958;-70
2020/12/20 02:32:02;;;;;;;;;;;;;;;;;;5074225;28;19927;-69
2020/12/20 02:34:28;;;;;;;;;;;;;;;;;;5072954;28;19913;-70
2020/12/20 02:36:54;;;;;;;;;;;;;;;;;;5073012;28;19908;-69
2020/12/20 02:39:20;;;;;;;;;;;;;;;;;;5054349;28;19909;-69
2020/12/20 02:41:46;;;;;;;;;;;;;;;;;;5054122;28;19954;-69
2020/12/20 02:44:12;;;;;;;;;;;;;;;;;;5054005;28;19912;-69
2020/12/20 02:46:38;;;;;;;;;;;;;;;;;;5052473;28;20391;-70
2020/12/20 02:49:04;;;;;;;;;;;;;;;;;;5052526;28;20059;-70
2020/12/20 02:51:30;;;;;;;;;;;;;;;;;;5053875;28;20046;-70
2020/12/20 02:53:56;;;;;;;;;;;;;;;;;;5052375;28;19916;-69
2020/12/20 02:56:22;;;;;;;;;;;;;;;;;;5053800;28;19948;-69
2020/12/20 02:58:48;;;;;;;;;;;;;;;;;;5053502;28;19912;-70
2020/12/20 03:01:14;;;;;;;;;;;;;;;;;;5053687;28;19967;-70
2020/12/20 03:03:40;;;;;;;;;;;;;;;;;;5052438;28;20375;-70
2020/12/20 03:06:06;;;;;;;;;;;;;;;;;;5052461;28;19960;-69
2020/12/20 03:08:32;;;;;;;;;;;;;;;;;;5059004;28;19999;-69
2020/12/20 03:10:58;;;;;;;;;;;;;;;;;;5053734;28;20026;-69
2020/12/20 03:13:23;;;;;;;;;;;;;;;;;;5053736;28;20019;-69
2020/12/20 03:15:49;;;;;;;;;;;;;;;;;;5053307;28;20011;-70
2020/12/20 03:18:15;;;;;;;;;;;;;;;;;;5052027;28;19959;-69
2020/12/20 03:20:41;;;;;;;;;;;;;;;;;;5052202;28;20359;-69
2020/12/20 03:23:07;;;;;;;;;;;;;;;;;;5053080;28;19936;-69
2020/12/20 03:25:33;;;;;;;;;;;;;;;;;;5053247;28;20103;-69
2020/12/20 03:27:59;;;;;;;;;;;;;;;;;;5052925;28;19956;-69
2020/12/20 03:30:25;;;;;;;;;;;;;;;;;;5052967;28;20000;-69
2020/12/20 03:32:51;;;;;;;;;;;;;;;;;;5053232;28;19909;-69
2020/12/20 03:35:17;;;;;;;;;;;;;;;;;;5057014;28;19919;-69
2020/12/20 03:37:43;;;;;;;;;;;;;;;;;;5061304;28;19954;-70
2020/12/20 03:40:08;;;;;;;;;;;;;;;;;;5055101;28;20335;-70
2020/12/20 03:42:34;;;;;;;;;;;;;;;;;;5051956;28;19908;-69
2020/12/20 03:45:00;;;;;;;;;;;;;;;;;;5053629;28;19912;-70
2020/12/20 03:47:26;;;;;;;;;;;;;;;;;;5051629;28;19964;-68
2020/12/20 03:49:52;;;;;;;;;;;;;;;;;;5062079;28;19942;-70
2020/12/20 03:52:18;;;;;;;;;;;;;;;;;;5069072;28;19916;-69
2020/12/20 03:54:44;;;;;;;;;;;;;;;;;;5065453;28;19919;-69
2020/12/20 03:57:10;;;;;;;;;;;;;;;;;;5052968;28;19916;-70
2020/12/20 03:59:39;;;;;;;;;;;;;;;;;;5052600;28;19916;-69
2020/12/20 04:02:05;;;;;;;;;;;;;;;;;;5052697;28;19915;-69
2020/12/20 04:04:31;;;;;;;;;;;;;;;;;;5063411;28;19919;-70
2020/12/20 04:06:57;;;;;;;;;;;;;;;;;;5056051;28;19964;-69
2020/12/20 04:09:22;;;;;;;;;;;;;;;;;;5059229;28;20361;-69
2020/12/20 04:11:48;;;;;;;;;;;;;;;;;;5050980;28;19943;-70
2020/12/20 04:14:14;;;;;;;;;;;;;;;;;;5051059;28;20000;-69
2020/12/20 04:16:40;;;;;;;;;;;;;;;;;;5051144;28;19913;-69
2020/12/20 04:19:06;;;;;;;;;;;;;;;;;;5052354;28;20368;-69
2020/12/20 04:21:32;;;;;;;;;;;;;;;;;;5052340;28;19948;-69
2020/12/20 04:23:58;;;;;;;;;;;;;;;;;;5050987;28;19948;-69
2020/12/20 04:26:24;;;;;;;;;;;;;;;;;;5052135;28;19963;-69
2020/12/20 04:28:50;;;;;;;;;;;;;;;;;;5050752;28;19908;-69
2020/12/20 04:31:16;;;;;;;;;;;;;;;;;;5051820;28;20474;-70
2020/12/20 04:33:41;;;;;;;;;;;;;;;;;;5052151;28;19947;-69
2020/12/20 04:36:07;;;;;;;;;;;;;;;;;;5053081;28;19916;-69
2020/12/20 04:38:33;;;;;;;;;;;;;;;;;;5063149;28;19962;-69
2020/12/20 04:40:59;;;;;;;;;;;;;;;;;;5070432;28;20002;-70
2020/12/20 04:43:25;;;;;;;;;;;;;;;;;;5071828;28;19920;-70
2020/12/20 04:45:51;;;;;;;;;;;;;;;;;;5070515;28;19909;-69
2020/12/20 04:48:17;;;;;;;;;;;;;;;;;;5071754;28;19916;-68
2020/12/20 04:50:43;;;;;;;;;;;;;;;;;;5073115;28;20376;-68
2020/12/20 04:53:09;;;;;;;;;;;;;;;;;;5071546;28;20485;-68
2020/12/20 04:55:35;;;;;;;;;;;;;;;;;;5071540;28;19999;-68
2020/12/20 04:58:00;;;;;;;;;;;;;;;;;;5070319;28;19989;-68
2020/12/20 05:00:26;;;;;;;;;;;;;;;;;;5070496;28;20402;-68
2020/12/20 05:02:52;;;;;;;;;;;;;;;;;;5071512;28;20394;-68
2020/12/20 05:05:18;;;;;;;;;;;;;;;;;;5070661;28;19944;-68
2020/12/20 05:07:44;;;;;;;;;;;;;;;;;;5062568;28;19957;-68
2020/12/20 05:10:10;;;;;;;;;;;;;;;;;;5069548;28;19943;-69
2020/12/20 05:12:36;;;;;;;;;;;;;;;;;;5071519;28;20651;-69
2020/12/20 05:15:02;;;;;;;;;;;;;;;;;;5071285;28;19920;-68
2020/12/20 05:17:28;;;;;;;;;;;;;;;;;;5071073;28;20287;-68
2020/12/20 05:19:54;;;;;;;;;;;;;;;;;;5072504;28;19944;-69
2020/12/20 05:22:20;;;;;;;;;;;;;;;;;;5069816;28;19909;-69
2020/12/20 05:24:46;;;;;;;;;;;;;;;;;;5071954;28;20059;-69
2020/12/20 05:27:12;;;;;;;;;;;;;;;;;;5071552;28;19960;-69
2020/12/20 05:29:37;;;;;;;;;;;;;;;;;;5069812;28;19955;-69
2020/12/20 05:32:03;;;;;;;;;;;;;;;;;;5071435;28;19980;-69
2020/12/20 05:34:29;;;;;;;;;;;;;;;;;;5070298;28;20003;-69
2020/12/20 05:36:55;;;;;;;;;;;;;;;;;;5068778;28;19999;-69
2020/12/20 05:39:21;;;;;;;;;;;;;;;;;;5062274;28;19954;-69
2020/12/20 05:41:47;;;;;;;;;;;;;;;;;;5067785;28;20308;-69
2020/12/20 05:44:13;;;;;;;;;;;;;;;;;;5064423;28;19909;-69
2020/12/20 05:46:39;;;;;;;;;;;;;;;;;;5075055;28;19954;-70
2020/12/20 05:49:05;;;;;;;;;;;;;;;;;;5075029;28;19947;-69
2020/12/20 05:51:31;;;;;;;;;;;;;;;;;;5074996;28;20386;-69
2020/12/20 05:53:56;;;;;;;;;;;;;;;;;;5074535;28;19956;-69
2020/12/20 05:56:22;;;;;;;;;;;;;;;;;;5073633;28;19947;-69
2020/12/20 05:58:48;;;;;;;;;;;;;;;;;;5073528;28;20397;-68
2020/12/20 06:01:14;;;;;;;;;;;;;;;;;;5074863;28;19908;-68
2020/12/20 06:03:40;;;;;;;;;;;;;;;;;;5074959;28;19908;-69
2020/12/20 06:06:06;;;;;;;;;;;;;;;;;;5072885;28;19963;-69
2020/12/20 06:08:32;;;;;;;;;;;;;;;;;;5068087;28;19916;-68
2020/12/20 06:10:58;;;;;;;;;;;;;;;;;;5055359;28;19909;-69
2020/12/20 06:13:24;;;;;;;;;;;;;;;;;;5054800;28;19992;-69
2020/12/20 06:15:50;;;;;;;;;;;;;;;;;;5056605;28;20011;-68
2020/12/20 06:18:16;;;;;;;;;;;;;;;;;;5063393;28;19959;-69
2020/12/20 06:20:42;;;;;;;;;;;;;;;;;;5072965;28;19947;-70
2020/12/20 06:23:07;;;;;;;;;;;;;;;;;;5072324;28;19915;-69
2020/12/20 06:25:33;;;;;;;;;;;;;;;;;;5067696;28;19920;-69
2020/12/20 06:27:59;;;;;;;;;;;;;;;;;;5053840;28;19912;-69
2020/12/20 06:30:25;;;;;;;;;;;;;;;;;;5054092;28;19962;-69
2020/12/20 06:32:51;;;;;;;;;;;;;;;;;;5054362;28;19962;-69
2020/12/20 06:35:17;;;;;;;;;;;;;;;;;;5052985;28;20330;-68
2020/12/20 06:37:43;;;;;;;;;;;;;;;;;;5060889;28;19909;-69
2020/12/20 06:40:09;;;;;;;;;;;;;;;;;;5059719;28;19909;-69
2020/12/20 06:42:35;;;;;;;;;;;;;;;;;;5053011;28;20406;-69
2020/12/20 06:45:01;;;;;;;;;;;;;;;;;;5053334;28;20281;-69
2020/12/20 06:47:27;;;;;;;;;;;;;;;;;;5058905;28;20017;-68
2020/12/20 06:49:53;;;;;;;;;;;;;;;;;;5060034;28;20047;-69
2020/12/20 06:52:19;;;;;;;;;;;;;;;;;;5055418;28;19909;-69
2020/12/20 06:54:45;;;;;;;;;;;;;;;;;;5055148;28;19916;-69
2020/12/20 06:57:11;;;;;;;;;;;;;;;;;;5056755;28;19909;-69
2020/12/20 06:59:37;;;;;;;;;;;;;;;;;;5056657;28;19913;-68
2020/12/20 07:02:02;;;;;;;;;;;;;;;;;;5056363;28;19970;-69
2020/12/20 07:04:28;;;;;;;;;;;;;;;;;;5056658;28;20418;-69
2020/12/20 07:06:54;;;;;;;;;;;;;;;;;;5063241;28;19939;-69
2020/12/20 07:09:20;;;;;;;;;;;;;;;;;;5064062;28;19916;-69
2020/12/20 07:11:49;;;;;;;;;;;;;;;;;;5057208;28;19920;-69
2020/12/20 07:14:15;;;;;;;;;;;;;;;;;;5007788;28;1385113;-69
2020/12/20 07:16:41;;;;;;;;;;;;;;;;;;5057738;28;20498;-68
2020/12/20 07:19:09;;;;;;;;;;;;;;;;;;5057495;28;19909;-68
2020/12/20 07:21:35;;;;;;;;;;;;;;;;;;5059047;28;19909;-69
2020/12/20 07:24:01;;;;;;;;;;;;;;;;;;5057926;28;20482;-68
2020/12/20 07:26:27;;;;;;;;;;;;;;;;;;5060813;28;19913;-69
2020/12/20 07:28:53;;;;;;;;;;;;;;;;;;5059543;28;19909;-68
2020/12/20 07:31:19;;;;;;;;;;;;;;;;;;5060169;28;19909;-69
2020/12/20 07:33:45;;;;;;;;;;;;;;;;;;5060736;28;19913;-69
2020/12/20 07:36:11;;;;;;;;;;;;;;;;;;5069569;28;19915;-69
2020/12/20 07:38:37;;;;;;;;;;;;;;;;;;5070139;28;19916;-69
2020/12/20 07:41:03;;;;;;;;;;;;;;;;;;5061051;28;19913;-69
2020/12/20 07:43:28;;;;;;;;;;;;;;;;;;5061582;28;20024;-69
2020/12/20 07:45:54;;;;;;;;;;;;;;;;;;5062598;28;19916;-69
2020/12/20 07:48:20;;;;;;;;;;;;;;;;;;5056880;28;19909;-69
2020/12/20 07:50:46;;;;;;;;;;;;;;;;;;5057619;28;19912;-69
2020/12/20 07:53:12;;;;;;;;;;;;;;;;;;5057213;28;20399;-69
2020/12/20 07:55:38;;;;;;;;;;;;;;;;;;5057730;28;20261;-68
2020/12/20 07:58:04;;;;;;;;;;;;;;;;;;5055540;28;20380;-68
2020/12/20 08:00:30;;;;;;;;;;;;;;;;;;5055727;28;20439;-68
2020/12/20 08:02:56;;;;;;;;;;;;;;;;;;5056803;28;19920;-69
2020/12/20 08:05:22;;;;;;;;;;;;;;;;;;5056123;28;19908;-69
2020/12/20 08:07:48;;;;;;;;;;;;;;;;;;5069666;28;20403;-68
2020/12/20 08:10:14;;;;;;;;;;;;;;;;;;5077415;28;19909;-69
2020/12/20 08:12:40;;;;;;;;;;;;;;;;;;5065724;28;20256;-69
2020/12/20 08:15:06;;;;;;;;;;;;;;;;;;5059488;28;19921;-69
2020/12/20 08:17:32;;;;;;;;;;;;;;;;;;5060884;28;19913;-69
2020/12/20 08:19:58;;;;;;;;;;;;;;;;;;5058435;28;19920;-69
2020/12/20 08:22:24;;;;;;;;;;;;;;;;;;5066506;28;19920;-70
2020/12/20 08:24:50;;;;;;;;;;;;;;;;;;5076921;28;19924;-69
2020/12/20 08:27:16;;;;;;;;;;;;;;;;;;5079170;28;20295;-69
2020/12/20 08:29:42;;;;;;;;;;;;;;;;;;5077145;28;19912;-69
2020/12/20 08:32:08;;;;;;;;;;;;;;;;;;5062321;28;19913;-69
2020/12/20 08:34:34;;;;;;;;;;;;;;;;;;5051780;28;19913;-69
2020/12/20 08:37:00;;;;;;;;;;;;;;;;;;5059421;28;19909;-69
2020/12/20 08:39:25;;;;;;;;;;;;;;;;;;5057428;28;20307;-69
2020/12/20 08:41:51;;;;;;;;;;;;;;;;;;5054977;28;19913;-69
2020/12/20 08:44:17;;;;;;;;;;;;;;;;;;5063119;28;19945;-69
2020/12/20 08:46:43;;;;;;;;;;;;;;;;;;5066001;28;19978;-69
2020/12/20 08:49:09;;;;;;;;;;;;;;;;;;5070162;28;19940;-70
2020/12/20 08:51:35;;;;;;;;;;;;;;;;;;5057927;28;19912;-68
2020/12/20 08:54:01;;;;;;;;;;;;;;;;;;5061861;28;20379;-68
2020/12/20 08:56:27;;;;;;;;;;;;;;;;;;5059484;28;20312;-70
2020/12/20 08:58:56;;;;;;;;;;;;;;;;;;5067106;28;19963;-69
2020/12/20 09:01:22;;;;;;;;;;;;;;;;;;5071583;28;20272;-69
2020/12/20 09:03:47;;;;;;;;;;;;;;;;;;5071596;28;19916;-69
2020/12/20 09:06:13;;;;;;;;;;;;;;;;;;5069594;28;19963;-70
2020/12/20 09:08:39;;;;;;;;;;;;;;;;;;5062627;28;20043;-69
2020/12/20 09:11:05;;;;;;;;;;;;;;;;;;5071585;28;19909;-69
2020/12/20 09:13:31;;;;;;;;;;;;;;;;;;5070317;28;19913;-69
2020/12/20 09:15:57;;;;;;;;;;;;;;;;;;5071436;28;20360;-69
2020/12/20 09:18:25;;;;;;;;;;;;;;;;;;5070945;28;19993;-69
2020/12/20 09:20:51;;;;;;;;;;;;;;;;;;5070901;28;20004;-70
2020/12/20 09:23:18;;;;;;;;;;;;;;;;;;5069717;28;19955;-70
2020/12/20 09:25:44;;;;;;;;;;;;;;;;;;5070601;28;20406;-69
2020/12/20 09:28:10;;;;;;;;;;;;;;;;;;5071390;28;19912;-68
2020/12/20 09:30:36;;;;;;;;;;;;;;;;;;5071182;28;20347;-68
2020/12/20 09:33:01;;;;;;;;;;;;;;;;;;5068175;28;19956;-69
2020/12/20 09:35:27;;;;;;;;;;;;;;;;;;5059301;28;20371;-69
2020/12/20 09:37:54;;;;;;;;;;;;;;;;;;5058180;28;20417;-69
2020/12/20 09:40:20;;;;;;;;;;;;;;;;;;5051451;28;19912;-69
2020/12/20 09:42:46;;;;;;;;;;;;;;;;;;5055981;28;19943;-69
2020/12/20 09:45:12;;;;;;;;;;;;;;;;;;5071315;28;19916;-69
2020/12/20 09:47:38;;;;;;;;;;;;;;;;;;5071314;28;19955;-69
2020/12/20 09:50:04;;;;;;;;;;;;;;;;;;5071262;28;19909;-69
2020/12/20 09:52:29;;;;;;;;;;;;;;;;;;5070937;28;19909;-69
2020/12/20 09:54:55;;;;;;;;;;;;;;;;;;5071115;28;19952;-69
2020/12/20 09:57:21;;;;;;;;;;;;;;;;;;5071030;28;19949;-68
2020/12/20 09:59:47;;;;;;;;;;;;;;;;;;5071026;28;20390;-69
2020/12/20 10:02:13;;;;;;;;;;;;;;;;;;5069791;28;20000;-70
2020/12/20 10:04:39;;;;;;;;;;;;;;;;;;5070823;28;19957;-68
2020/12/20 10:07:05;;;;;;;;;;;;;;;;;;5069141;28;19964;-68
2020/12/20 10:09:31;;;;;;;;;;;;;;;;;;5057867;28;19999;-68
2020/12/20 10:11:57;;;;;;;;;;;;;;;;;;5050959;28;20080;-68
2020/12/20 10:14:23;;;;;;;;;;;;;;;;;;5050610;28;19975;-69
2020/12/20 10:16:48;;;;;;;;;;;;;;;;;;5051063;28;19940;-70
2020/12/20 10:19:14;;;;;;;;;;;;;;;;;;5052416;28;19952;-69
2020/12/20 10:21:40;;;;;;;;;;;;;;;;;;5070588;28;20424;-69
2020/12/20 10:24:06;;;;;;;;;;;;;;;;;;5069547;28;19917;-69
2020/12/20 10:26:32;;;;;;;;;;;;;;;;;;5070808;28;20010;-69
2020/12/20 10:28:58;;;;;;;;;;;;;;;;;;5070171;28;19909;-69
2020/12/20 10:31:24;;;;;;;;;;;;;;;;;;5073210;28;19909;-68
2020/12/20 10:33:50;;;;;;;;;;;;;;;;;;5074361;28;19991;-68
2020/12/20 10:36:16;;;;;;;;;;;;;;;;;;5070472;28;19989;-69
2020/12/20 10:38:42;;;;;;;;;;;;;;;;;;5053582;28;19909;-69
2020/12/20 10:41:08;;;;;;;;;;;;;;;;;;5054286;28;19908;-68
2020/12/20 10:43:34;;;;;;;;;;;;;;;;;;5054359;28;19951;-68
2020/12/20 10:45:59;;;;;;;;;;;;;;;;;;5062784;28;19959;-69
2020/12/20 10:48:25;;;;;;;;;;;;;;;;;;5061690;28;20001;-69
2020/12/20 10:50:51;;;;;;;;;;;;;;;;;;5062764;28;20340;-68
2020/12/20 10:53:17;;;;;;;;;;;;;;;;;;5065382;28;19979;-68
2020/12/20 10:55:43;;;;;;;;;;;;;;;;;;5062896;28;20292;-68
2020/12/20 10:58:09;;;;;;;;;;;;;;;;;;5058803;28;19920;-67
2020/12/20 11:00:35;;;;;;;;;;;;;;;;;;5053038;28;19908;-67
2020/12/20 11:03:01;;;;;;;;;;;;;;;;;;5054016;28;19909;-68
2020/12/20 11:05:28;;;;;;;;;;;;;;;;;;5053755;28;19947;-69
2020/12/20 11:07:54;;;;;;;;;;;;;;;;;;5061867;28;19975;-68
2020/12/20 11:10:20;;;;;;;;;;;;;;;;;;5072413;28;20247;-68
2020/12/20 11:12:45;;;;;;;;;;;;;;;;;;5073950;28;19920;-69
2020/12/20 11:15:11;;;;;;;;;;;;;;;;;;5072011;28;19912;-68
2020/12/20 11:17:37;;;;;;;;;;;;;;;;;;5073650;28;19948;-69
2020/12/20 11:20:03;;;;;;;;;;;;;;;;;;5073616;28;19947;-68
2020/12/20 11:22:29;;;;;;;;;;;;;;;;;;5073013;28;20394;-69
2020/12/20 11:24:55;;;;;;;;;;;;;;;;;;5070469;28;20037;-68
2020/12/20 11:27:21;;;;;;;;;;;;;;;;;;5077484;28;19996;-67
2020/12/20 11:29:47;;;;;;;;;;;;;;;;;;5089964;28;19908;-69
2020/12/20 11:32:13;;;;;;;;;;;;;;;;;;5086480;28;19904;-69
2020/12/20 11:34:39;;;;;;;;;;;;;;;;;;5064415;28;19905;-68
2020/12/20 11:37:05;;;;;;;;;;;;;;;;;;5069440;28;20348;-68
2020/12/20 11:39:30;;;;;;;;;;;;;;;;;;5062786;28;19935;-69
2020/12/20 11:41:56;;;;;;;;;;;;;;;;;;5056266;28;19960;-68
2020/12/20 11:44:22;;;;;;;;;;;;;;;;;;5051869;28;19952;-68
2020/12/20 11:46:48;;;;;;;;;;;;;;;;;;5053145;28;19967;-68
2020/12/20 11:49:14;;;;;;;;;;;;;;;;;;5051293;28;20366;-68
2020/12/20 11:51:40;;;;;;;;;;;;;;;;;;5057204;28;19904;-68
2020/12/20 11:54:06;;;;;;;;;;;;;;;;;;5071067;28;20268;-69
2020/12/20 11:56:32;;;;;;;;;;;;;;;;;;5072895;28;19911;-68
2020/12/20 11:58:58;;;;;;;;;;;;;;;;;;5058339;28;20392;-68
2020/12/20 12:01:24;;;;;;;;;;;;;;;;;;5051596;28;19963;-68
2020/12/20 12:03:50;;;;;;;;;;;;;;;;;;5052768;28;19909;-68
2020/12/20 12:06:16;;;;;;;;;;;;;;;;;;5052370;28;20256;-69
2020/12/20 12:08:44;;;;;;;;;;;;;;;;;;5050882;28;19951;-68
2020/12/20 12:11:10;;;;;;;;;;;;;;;;;;5069612;28;19976;-68
2020/12/20 12:13:36;;;;;;;;;;;;;;;;;;5069454;28;21069;-68
2020/12/20 12:16:02;;;;;;;;;;;;;;;;;;5063143;28;20381;-68
2020/12/20 12:18:27;;;;;;;;;;;;;;;;;;5064824;28;19912;-67
2020/12/20 12:20:53;;;;;;;;;;;;;;;;;;5059354;28;19967;-66
2020/12/20 12:23:19;;;;;;;;;;;;;;;;;;5054034;28;19978;-68
2020/12/20 12:25:45;;;;;;;;;;;;;;;;;;5052821;28;20343;-68
2020/12/20 12:28:11;;;;;;;;;;;;;;;;;;5052424;28;19948;-68
2020/12/20 12:30:37;;;;;;;;;;;;;;;;;;5052528;28;19944;-68
2020/12/20 12:33:03;;;;;;;;;;;;;;;;;;5052308;28;19909;-69
2020/12/20 12:35:29;;;;;;;;;;;;;;;;;;5052199;28;19967;-68
2020/12/20 12:37:55;;;;;;;;;;;;;;;;;;5051920;28;19916;-69
2020/12/20 12:40:21;;;;;;;;;;;;;;;;;;5056718;28;19908;-67
2020/12/20 12:42:47;;;;;;;;;;;;;;;;;;5052865;28;20368;-67
2020/12/20 12:45:14;;;;;;;;;;;;;;;;;;5052368;28;19908;-69
2020/12/20 12:47:40;;;;;;;;;;;;;;;;;;5069162;28;19916;-67
2020/12/20 12:50:06;;;;;;;;;;;;;;;;;;5071133;28;20573;-68
2020/12/20 12:52:32;;;;;;;;;;;;;;;;;;5070087;28;20008;-68
2020/12/20 12:54:57;;;;;;;;;;;;;;;;;;5056323;28;19944;-68
2020/12/20 12:57:23;;;;;;;;;;;;;;;;;;5074735;28;19908;-68
2020/12/20 12:59:49;;;;;;;;;;;;;;;;;;5082282;28;20361;-68
2020/12/20 13:02:16;;;;;;;;;;;;;;;;;;5074624;28;19909;-68
2020/12/20 13:04:42;;;;;;;;;;;;;;;;;;5071170;28;20017;-68
2020/12/20 13:07:07;;;;;;;;;;;;;;;;;;5070719;28;19964;-68
2020/12/20 13:09:33;;;;;;;;;;;;;;;;;;5064639;28;19909;-68
2020/12/20 13:12:00;;;;;;;;;;;;;;;;;;5057610;28;20294;-68
2020/12/20 13:14:25;;;;;;;;;;;;;;;;;;5051578;28;19913;-69
2020/12/20 13:16:51;;;;;;;;;;;;;;;;;;5063314;28;20553;-69
2020/12/20 13:19:17;;;;;;;;;;;;;;;;;;5063625;28;20428;-68
2020/12/20 13:21:43;;;;;;;;;;;;;;;;;;5055796;28;19986;-68
2020/12/20 13:24:09;;;;;;;;;;;;;;;;;;5068881;28;19909;-68
2020/12/20 13:26:35;;;;;;;;;;;;;;;;;;5070725;28;20129;-68
2020/12/20 13:29:01;;;;;;;;;;;;;;;;;;5063286;28;19920;-68
2020/12/20 13:31:27;;;;;;;;;;;;;;;;;;5059920;28;19948;-68
2020/12/20 13:33:55;;;;;;;;;;;;;;;;;;5057506;28;19936;-67
2020/12/20 13:36:21;;;;;;;;;;;;;;;;;;5057650;28;19909;-69
2020/12/20 13:38:47;;;;;;;;;;;;;;;;;;5051290;28;19908;-68
2020/12/20 13:41:13;;;;;;;;;;;;;;;;;;5056923;28;20043;-68
2020/12/20 13:43:39;;;;;;;;;;;;;;;;;;5052590;28;20006;-68
2020/12/20 13:46:05;;;;;;;;;;;;;;;;;;5067638;28;19982;-69
2020/12/20 13:48:31;;;;;;;;;;;;;;;;;;5069663;28;19909;-69
2020/12/20 13:50:56;;;;;;;;;;;;;;;;;;5069355;28;19948;-68
2020/12/20 13:53:22;;;;;;;;;;;;;;;;;;5053968;28;19999;-68
2020/12/20 13:55:48;;;;;;;;;;;;;;;;;;5051119;28;20321;-68
2020/12/20 13:58:14;;;;;;;;;;;;;;;;;;5051268;28;19909;-68
2020/12/20 14:00:40;;;;;;;;;;;;;;;;;;5050978;28;20388;-68
2020/12/20 14:03:06;;;;;;;;;;;;;;;;;;5063216;28;19958;-69
2020/12/20 14:05:32;;;;;;;;;;;;;;;;;;5054451;28;19959;-68
2020/12/20 14:07:58;;;;;;;;;;;;;;;;;;5066191;28;19917;-68
2020/12/20 14:10:24;;;;;;;;;;;;;;;;;;5059766;28;20374;-69
2020/12/20 14:12:50;;;;;;;;;;;;;;;;;;5054812;28;19956;-68
2020/12/20 14:15:16;;;;;;;;;;;;;;;;;;5054532;28;19969;-69
2020/12/20 14:17:42;;;;;;;;;;;;;;;;;;5053779;28;19956;-67
2020/12/20 14:20:10;;;;;;;;;;;;;;;;;;5072490;28;20261;-68
2020/12/20 14:22:36;;;;;;;;;;;;;;;;;;5073670;28;19916;-69
2020/12/20 14:25:02;;;;;;;;;;;;;;;;;;5072907;28;19908;-68
2020/12/20 14:27:28;;;;;;;;;;;;;;;;;;5054118;28;19948;-68
2020/12/20 14:29:54;;;;;;;;;;;;;;;;;;5072366;28;19916;-67
2020/12/20 14:32:20;;;;;;;;;;;;;;;;;;5054792;28;19909;-68
2020/12/20 14:34:46;;;;;;;;;;;;;;;;;;5066437;28;20284;-68
2020/12/20 14:37:12;;;;;;;;;;;;;;;;;;5060221;28;19913;-68
2020/12/20 14:39:39;;;;;;;;;;;;;;;;;;5072541;28;19912;-69
2020/12/20 14:42:05;;;;;;;;;;;;;;;;;;5060551;28;19909;-68
2020/12/20 14:44:32;;;;;;;;;;;;;;;;;;5054256;28;20338;-68
2020/12/20 14:46:58;;;;;;;;;;;;;;;;;;5054366;28;19980;-68
2020/12/20 14:49:24;;;;;;;;;;;;;;;;;;5054237;28;19909;-68
2020/12/20 14:51:50;;;;;;;;;;;;;;;;;;5054076;28;19959;-68
2020/12/20 14:54:16;;;;;;;;;;;;;;;;;;5058963;28;19913;-68
2020/12/20 14:56:42;;;;;;;;;;;;;;;;;;5069054;28;20349;-68
2020/12/20 14:59:08;;;;;;;;;;;;;;;;;;5073081;28;19912;-67
2020/12/20 15:01:34;;;;;;;;;;;;;;;;;;5072307;28;19915;-68
2020/12/20 15:04:02;;;;;;;;;;;;;;;;;;5072574;28;20359;-68
2020/12/20 15:06:28;;;;;;;;;;;;;;;;;;5073252;28;19934;-66
2020/12/20 15:08:54;;;;;;;;;;;;;;;;;;5070590;28;19908;-69
2020/12/20 15:11:20;;;;;;;;;;;;;;;;;;5070028;28;20399;-68
2020/12/20 15:13:46;;;;;;;;;;;;;;;;;;5079849;28;19916;-69
2020/12/20 15:16:12;;;;;;;;;;;;;;;;;;5069865;28;19917;-67
2020/12/20 15:18:38;;;;;;;;;;;;;;;;;;5062646;28;19924;-68
2020/12/20 15:21:04;;;;;;;;;;;;;;;;;;5053361;28;19909;-68
2020/12/20 15:23:30;;;;;;;;;;;;;;;;;;5053793;28;19908;-68
2020/12/20 15:25:56;;;;;;;;;;;;;;;;;;5052285;28;20280;-67
2020/12/20 15:28:21;;;;;;;;;;;;;;;;;;5052016;28;20538;-68
2020/12/20 15:30:47;;;;;;;;;;;;;;;;;;5053658;28;19940;-68
2020/12/20 15:33:13;;;;;;;;;;;;;;;;;;5053362;28;19956;-68
2020/12/20 15:35:39;;;;;;;;;;;;;;;;;;5053327;28;19936;-67
2020/12/20 15:38:05;;;;;;;;;;;;;;;;;;5054954;28;20241;-68
2020/12/20 15:40:31;;;;;;;;;;;;;;;;;;5063300;28;19912;-68
2020/12/20 15:42:57;;;;;;;;;;;;;;;;;;5073272;28;20488;-68
2020/12/20 15:45:23;;;;;;;;;;;;;;;;;;5073119;28;19909;-68
2020/12/20 15:47:49;;;;;;;;;;;;;;;;;;5072963;28;20350;-68
2020/12/20 15:50:15;;;;;;;;;;;;;;;;;;5073062;28;19936;-68
2020/12/20 15:52:43;;;;;;;;;;;;;;;;;;5072628;28;19944;-68
2020/12/20 15:55:09;;;;;;;;;;;;;;;;;;5071248;28;19975;-68
2020/12/20 15:57:35;;;;;;;;;;;;;;;;;;5072687;28;20369;-68
2020/12/20 16:00:01;;;;;;;;;;;;;;;;;;5073128;28;19908;-68
2020/12/20 16:02:27;;;;;;;;;;;;;;;;;;5073039;28;19923;-68
2020/12/20 16:04:53;;;;;;;;;;;;;;;;;;5072722;28;19943;-68
2020/12/20 16:07:19;;;;;;;;;;;;;;;;;;5072205;28;20384;-68
2020/12/20 16:09:45;;;;;;;;;;;;;;;;;;5071327;28;20292;-67
2020/12/20 16:12:10;;;;;;;;;;;;;;;;;;5062636;28;19948;-69
2020/12/20 16:14:37;;;;;;;;;;;;;;;;;;5052455;28;19956;-69
2020/12/20 16:17:03;;;;;;;;;;;;;;;;;;5052464;28;19913;-68
2020/12/20 16:19:29;;;;;;;;;;;;;;;;;;5052386;28;19948;-67
2020/12/20 16:21:55;;;;;;;;;;;;;;;;;;5051641;28;19968;-68
2020/12/20 16:24:26;;;;;;;;;;;;;;;;;;5052119;28;19932;-68
2020/12/20 16:26:52;;;;;;;;;;;;;;;;;;5050080;28;19913;-68
2020/12/20 16:29:17;;;;;;;;;;;;;;;;;;5051808;28;20394;-68
2020/12/20 16:31:43;;;;;;;;;;;;;;;;;;5052140;28;19909;-67
2020/12/20 16:34:09;;;;;;;;;;;;;;;;;;5051855;28;20281;-68
2020/12/20 16:36:35;;;;;;;;;;;;;;;;;;5051974;28;20007;-68